sensor_id;sensor_type;location;lat;lon;timestamp;pressure;altitude;pressure_sealevel;temperature;humidity
57290;BME280;43523;53.022;-1.178;2022-11-20T00:00:23;100330.23;;;3.53;100.00
57290;BME280;43523;53.022;-1.178;2022-11-20T00:01:26;100331.24;;;3.44;100.00
57290;BME280;43523;53.022;-1.178;2022-11-20T00:02:29;100332.28;;;3.36;100.00
57290;BME280;43523;53.022;-1.178;2022-11-20T00:03:32;100331.85;;;3.21;100.00
57290;BME280;43523;53.022;-1.178;2022-11-20T00:04:33;100328.64;;;3.28;100.00
57290;BME280;43523;53.022;-1.178;2022-11-20T00:05:41;100325.80;;;3.59;100.00
57290;BME280;43523;53.022;-1.178;2022-11-20T00:06:44;100324.67;;;3.43;100.00
57290;BME280;43523;53.022;-1.178;2022-11-20T00:07:46;100321.07;;;3.78;100.00
57290;BME280;43523;53.022;-1.178;2022-11-20T00:08:50;100320.74;;;3.30;100.00
57290;BME280;43523;53.022;-1.178;2022-11-20T00:09:53;100321.31;;;3.89;100.00
57290;BME280;43523;53.022;-1.178;2022-11-20T00:10:55;100321.27;;;3.39;100.00
57290;BME280;43523;53.022;-1.178;2022-11-20T00:11:58;100319.63;;;3.55;100.00
57290;BME280;43523;53.022;-1.178;2022-11-20T00:13:00;100321.52;;;3.24;100.00
57290;BME280;43523;53.022;-1.178;2022-11-20T00:14:08;100319.10;;;3.16;100.00
57290;BME280;43523;53.022;-1.178;2022-11-20T00:15:12;100315.51;;;3.69;100.00
57290;BME280;43523;53.022;-1.178;2022-11-20T00:16:17;100313.24;;;3.94;100.00
57290;BME280;43523;53.022;-1.178;2022-11-20T00:17:20;100311.19;;;2.82;100.00
57290;BME280;43523;53.022;-1.178;2022-11-20T00:18:22;100311.34;;;3.10;100.00
57290;BME280;43523;53.022;-1.178;2022-11-20T00:19:25;100314.32;;;3.55;100.00
57290;BME280;43523;53.022;-1.178;2022-11-20T00:20:27;100313.97;;;3.31;100.00
57290;BME280;43523;53.022;-1.178;2022-11-20T00:21:30;100312.77;;;3.85;100.00
57290;BME280;43523;53.022;-1.178;2022-11-20T00:22:33;100312.48;;;3.73;100.00
57290;BME280;43523;53.022;-1.178;2022-11-20T00:23:37;100307.85;;;3.53;100.00
57290;BME280;43523;53.022;-1.178;2022-11-20T00:24:39;100302.31;;;4.26;100.00
57290;BME280;43523;53.022;-1.178;2022-11-20T00:25:42;100299.89;;;2.86;100.00
57290;BME280;43523;53.022;-1.178;2022-11-20T00:26:45;100302.02;;;2.89;100.00
57290;BME280;43523;53.022;-1.178;2022-11-20T00:27:47;100294.82;;;2.46;100.00
57290;BME280;43523;53.022;-1.178;2022-11-20T00:28:51;100292.80;;;3.32;100.00
57290;BME280;43523;53.022;-1.178;2022-11-20T00:29:54;100289.80;;;2.87;100.00
57290;BME280;43523;53.022;-1.178;2022-11-20T00:31:02;100285.80;;;2.94;100.00
57290;BME280;43523;53.022;-1.178;2022-11-20T00:32:04;100284.24;;;3.43;100.00
57290;BME280;43523;53.022;-1.178;2022-11-20T00:33:06;100281.65;;;3.50;100.00
57290;BME280;43523;53.022;-1.178;2022-11-20T00:34:09;100278.62;;;3.90;100.00
57290;BME280;43523;53.022;-1.178;2022-11-20T00:35:11;100279.35;;;3.30;100.00
57290;BME280;43523;53.022;-1.178;2022-11-20T00:36:16;100277.14;;;2.79;100.00
57290;BME280;43523;53.022;-1.178;2022-11-20T00:37:19;100277.56;;;3.08;100.00
57290;BME280;43523;53.022;-1.178;2022-11-20T00:38:21;100277.47;;;3.26;100.00
57290;BME280;43523;53.022;-1.178;2022-11-20T00:39:23;100277.68;;;3.10;100.00
57290;BME280;43523;53.022;-1.178;2022-11-20T00:40:26;100279.09;;;3.73;100.00
57290;BME280;43523;53.022;-1.178;2022-11-20T00:41:29;100278.49;;;3.82;100.00
57290;BME280;43523;53.022;-1.178;2022-11-20T00:42:32;100278.19;;;3.87;100.00
57290;BME280;43523;53.022;-1.178;2022-11-20T00:43:38;100279.38;;;3.89;100.00
57290;BME280;43523;53.022;-1.178;2022-11-20T00:44:41;100278.82;;;3.97;100.00
57290;BME280;43523;53.022;-1.178;2022-11-20T00:45:43;100278.89;;;3.82;100.00
57290;BME280;43523;53.022;-1.178;2022-11-20T00:46:45;100278.45;;;3.80;100.00
57290;BME280;43523;53.022;-1.178;2022-11-20T00:47:47;100277.11;;;3.44;100.00
57290;BME280;43523;53.022;-1.178;2022-11-20T00:48:50;100277.17;;;3.52;100.00
57290;BME280;43523;53.022;-1.178;2022-11-20T00:49:52;100276.15;;;4.10;100.00
57290;BME280;43523;53.022;-1.178;2022-11-20T00:50:54;100275.79;;;3.60;100.00
57290;BME280;43523;53.022;-1.178;2022-11-20T00:51:56;100274.45;;;3.05;100.00
57290;BME280;43523;53.022;-1.178;2022-11-20T00:52:58;100274.11;;;2.55;100.00
57290;BME280;43523;53.022;-1.178;2022-11-20T00:54:01;100273.53;;;3.44;100.00
57290;BME280;43523;53.022;-1.178;2022-11-20T00:55:04;100274.51;;;3.00;100.00
57290;BME280;43523;53.022;-1.178;2022-11-20T00:56:11;100269.52;;;3.52;100.00
57290;BME280;43523;53.022;-1.178;2022-11-20T00:57:13;100264.90;;;2.73;100.00
57290;BME280;43523;53.022;-1.178;2022-11-20T00:58:16;100263.07;;;2.61;100.00
57290;BME280;43523;53.022;-1.178;2022-11-20T00:59:18;100262.60;;;3.37;100.00
57290;BME280;43523;53.022;-1.178;2022-11-20T01:00:21;100259.00;;;3.25;100.00
57290;BME280;43523;53.022;-1.178;2022-11-20T01:01:24;100258.75;;;3.09;100.00
57290;BME280;43523;53.022;-1.178;2022-11-20T01:02:27;100254.57;;;3.24;100.00
57290;BME280;43523;53.022;-1.178;2022-11-20T01:03:31;100254.04;;;3.07;100.00
57290;BME280;43523;53.022;-1.178;2022-11-20T01:04:33;100250.75;;;2.56;100.00
57290;BME280;43523;53.022;-1.178;2022-11-20T01:05:36;100249.86;;;3.31;100.00
57290;BME280;43523;53.022;-1.178;2022-11-20T01:06:39;100245.22;;;2.42;100.00
57290;BME280;43523;53.022;-1.178;2022-11-20T01:07:41;100246.89;;;2.92;100.00
57290;BME280;43523;53.022;-1.178;2022-11-20T01:08:44;100242.07;;;3.31;100.00
57290;BME280;43523;53.022;-1.178;2022-11-20T01:09:47;100241.11;;;2.62;100.00
57290;BME280;43523;53.022;-1.178;2022-11-20T01:10:49;100238.99;;;3.29;100.00
57290;BME280;43523;53.022;-1.178;2022-11-20T01:11:52;100237.22;;;3.29;100.00
57290;BME280;43523;53.022;-1.178;2022-11-20T01:12:55;100236.24;;;2.67;100.00
57290;BME280;43523;53.022;-1.178;2022-11-20T01:13:59;100234.68;;;3.47;100.00
57290;BME280;43523;53.022;-1.178;2022-11-20T01:15:02;100230.62;;;3.25;100.00
57290;BME280;43523;53.022;-1.178;2022-11-20T01:16:06;100228.10;;;3.46;100.00
57290;BME280;43523;53.022;-1.178;2022-11-20T01:17:09;100226.39;;;2.78;100.00
57290;BME280;43523;53.022;-1.178;2022-11-20T01:18:11;100220.12;;;3.31;100.00
57290;BME280;43523;53.022;-1.178;2022-11-20T01:19:15;100218.44;;;3.13;100.00
57290;BME280;43523;53.022;-1.178;2022-11-20T01:20:17;100218.85;;;2.60;100.00
57290;BME280;43523;53.022;-1.178;2022-11-20T01:21:22;100218.48;;;2.77;100.00
57290;BME280;43523;53.022;-1.178;2022-11-20T01:22:25;100216.02;;;2.32;100.00
57290;BME280;43523;53.022;-1.178;2022-11-20T01:23:30;100216.51;;;2.48;100.00
57290;BME280;43523;53.022;-1.178;2022-11-20T01:24:33;100215.91;;;2.63;100.00
57290;BME280;43523;53.022;-1.178;2022-11-20T01:25:37;100217.38;;;2.76;100.00
57290;BME280;43523;53.022;-1.178;2022-11-20T01:26:57;100211.68;;;3.42;100.00
57290;BME280;43523;53.022;-1.178;2022-11-20T01:27:59;100209.89;;;2.55;100.00
57290;BME280;43523;53.022;-1.178;2022-11-20T01:29:03;100204.00;;;3.11;100.00
57290;BME280;43523;53.022;-1.178;2022-11-20T01:30:06;100202.38;;;2.78;100.00
57290;BME280;43523;53.022;-1.178;2022-11-20T01:31:12;100202.74;;;2.56;100.00
57290;BME280;43523;53.022;-1.178;2022-11-20T01:32:15;100201.15;;;2.11;100.00
57290;BME280;43523;53.022;-1.178;2022-11-20T01:33:17;100202.50;;;2.25;100.00
57290;BME280;43523;53.022;-1.178;2022-11-20T01:34:21;100199.08;;;2.05;100.00
57290;BME280;43523;53.022;-1.178;2022-11-20T01:35:23;100202.26;;;2.86;100.00
57290;BME280;43523;53.022;-1.178;2022-11-20T01:36:28;100201.22;;;2.71;100.00
57290;BME280;43523;53.022;-1.178;2022-11-20T01:37:30;100200.65;;;2.30;100.00
57290;BME280;43523;53.022;-1.178;2022-11-20T01:38:33;100196.25;;;2.69;100.00
57290;BME280;43523;53.022;-1.178;2022-11-20T01:39:36;100193.05;;;3.26;100.00
57290;BME280;43523;53.022;-1.178;2022-11-20T01:40:38;100192.13;;;3.13;100.00
57290;BME280;43523;53.022;-1.178;2022-11-20T01:41:42;100189.73;;;3.21;100.00
57290;BME280;43523;53.022;-1.178;2022-11-20T01:42:46;100186.50;;;2.79;100.00
57290;BME280;43523;53.022;-1.178;2022-11-20T01:43:50;100187.38;;;3.11;100.00
57290;BME280;43523;53.022;-1.178;2022-11-20T01:44:55;100187.76;;;2.84;100.00
57290;BME280;43523;53.022;-1.178;2022-11-20T01:46:02;100182.85;;;2.78;100.00
57290;BME280;43523;53.022;-1.178;2022-11-20T01:47:07;100182.12;;;2.20;100.00
57290;BME280;43523;53.022;-1.178;2022-11-20T01:48:11;100177.34;;;2.80;100.00
57290;BME280;43523;53.022;-1.178;2022-11-20T01:49:17;100176.95;;;3.08;100.00
57290;BME280;43523;53.022;-1.178;2022-11-20T01:50:23;100177.23;;;3.38;100.00
57290;BME280;43523;53.022;-1.178;2022-11-20T01:51:29;100178.59;;;3.71;100.00
57290;BME280;43523;53.022;-1.178;2022-11-20T01:52:39;100179.69;;;3.91;100.00
57290;BME280;43523;53.022;-1.178;2022-11-20T01:53:43;100180.62;;;4.16;100.00
57290;BME280;43523;53.022;-1.178;2022-11-20T01:54:50;100176.98;;;3.97;100.00
57290;BME280;43523;53.022;-1.178;2022-11-20T01:55:57;100172.87;;;4.25;100.00
57290;BME280;43523;53.022;-1.178;2022-11-20T01:57:02;100171.06;;;4.11;100.00
57290;BME280;43523;53.022;-1.178;2022-11-20T01:58:06;100171.21;;;3.82;100.00
57290;BME280;43523;53.022;-1.178;2022-11-20T01:59:12;100167.83;;;3.71;100.00
57290;BME280;43523;53.022;-1.178;2022-11-20T02:00:17;100166.74;;;3.06;100.00
57290;BME280;43523;53.022;-1.178;2022-11-20T02:01:21;100163.77;;;3.64;100.00
57290;BME280;43523;53.022;-1.178;2022-11-20T02:02:23;100158.85;;;3.08;100.00
57290;BME280;43523;53.022;-1.178;2022-11-20T02:03:26;100158.65;;;3.61;100.00
57290;BME280;43523;53.022;-1.178;2022-11-20T02:04:28;100156.91;;;3.62;100.00
57290;BME280;43523;53.022;-1.178;2022-11-20T02:05:33;100154.17;;;3.84;100.00
57290;BME280;43523;53.022;-1.178;2022-11-20T02:06:42;100153.18;;;4.12;100.00
57290;BME280;43523;53.022;-1.178;2022-11-20T02:07:47;100153.69;;;3.50;100.00
57290;BME280;43523;53.022;-1.178;2022-11-20T02:08:51;100153.14;;;2.73;100.00
57290;BME280;43523;53.022;-1.178;2022-11-20T02:09:54;100151.66;;;2.58;100.00
57290;BME280;43523;53.022;-1.178;2022-11-20T02:10:56;100150.21;;;2.52;100.00
57290;BME280;43523;53.022;-1.178;2022-11-20T02:11:59;100147.08;;;2.40;100.00
57290;BME280;43523;53.022;-1.178;2022-11-20T02:13:03;100147.84;;;2.92;100.00
57290;BME280;43523;53.022;-1.178;2022-11-20T02:14:06;100147.10;;;3.37;100.00
57290;BME280;43523;53.022;-1.178;2022-11-20T02:15:10;100144.43;;;3.76;100.00
57290;BME280;43523;53.022;-1.178;2022-11-20T02:16:15;100146.90;;;3.71;100.00
57290;BME280;43523;53.022;-1.178;2022-11-20T02:17:18;100141.97;;;3.88;100.00
57290;BME280;43523;53.022;-1.178;2022-11-20T02:18:21;100137.78;;;4.16;100.00
57290;BME280;43523;53.022;-1.178;2022-11-20T02:19:28;100138.47;;;4.01;100.00
57290;BME280;43523;53.022;-1.178;2022-11-20T02:20:32;100134.96;;;4.11;100.00
57290;BME280;43523;53.022;-1.178;2022-11-20T02:21:39;100136.88;;;3.49;100.00
57290;BME280;43523;53.022;-1.178;2022-11-20T02:22:49;100137.93;;;3.78;100.00
57290;BME280;43523;53.022;-1.178;2022-11-20T02:24:00;100139.15;;;3.16;100.00
57290;BME280;43523;53.022;-1.178;2022-11-20T02:25:04;100135.99;;;3.50;100.00
57290;BME280;43523;53.022;-1.178;2022-11-20T02:26:12;100132.82;;;3.36;100.00
57290;BME280;43523;53.022;-1.178;2022-11-20T02:27:17;100128.40;;;3.90;100.00
57290;BME280;43523;53.022;-1.178;2022-11-20T02:28:19;100130.29;;;3.34;100.00
57290;BME280;43523;53.022;-1.178;2022-11-20T02:29:25;100125.64;;;3.71;100.00
57290;BME280;43523;53.022;-1.178;2022-11-20T02:30:29;100124.95;;;3.89;100.00
57290;BME280;43523;53.022;-1.178;2022-11-20T02:31:37;100119.82;;;3.98;100.00
57290;BME280;43523;53.022;-1.178;2022-11-20T02:32:41;100121.67;;;4.01;100.00
57290;BME280;43523;53.022;-1.178;2022-11-20T02:33:43;100120.29;;;4.17;100.00
57290;BME280;43523;53.022;-1.178;2022-11-20T02:34:46;100119.51;;;4.20;100.00
57290;BME280;43523;53.022;-1.178;2022-11-20T02:35:49;100117.05;;;3.92;100.00
57290;BME280;43523;53.022;-1.178;2022-11-20T02:36:52;100118.17;;;4.11;100.00
57290;BME280;43523;53.022;-1.178;2022-11-20T02:37:58;100115.60;;;3.72;100.00
57290;BME280;43523;53.022;-1.178;2022-11-20T02:39:02;100115.09;;;3.68;100.00
57290;BME280;43523;53.022;-1.178;2022-11-20T02:40:06;100112.04;;;4.05;100.00
57290;BME280;43523;53.022;-1.178;2022-11-20T02:41:09;100109.74;;;4.10;100.00
57290;BME280;43523;53.022;-1.178;2022-11-20T02:42:11;100111.55;;;4.21;100.00
57290;BME280;43523;53.022;-1.178;2022-11-20T02:43:15;100108.75;;;3.85;100.00
57290;BME280;43523;53.022;-1.178;2022-11-20T02:44:17;100106.92;;;3.90;100.00
57290;BME280;43523;53.022;-1.178;2022-11-20T02:45:21;100105.54;;;3.46;100.00
57290;BME280;43523;53.022;-1.178;2022-11-20T02:46:24;100101.38;;;3.54;100.00
57290;BME280;43523;53.022;-1.178;2022-11-20T02:47:26;100098.64;;;3.75;100.00
57290;BME280;43523;53.022;-1.178;2022-11-20T02:48:28;100100.27;;;3.98;100.00
57290;BME280;43523;53.022;-1.178;2022-11-20T02:49:31;100098.71;;;3.39;100.00
57290;BME280;43523;53.022;-1.178;2022-11-20T02:50:36;100095.76;;;3.55;100.00
57290;BME280;43523;53.022;-1.178;2022-11-20T02:51:38;100094.46;;;3.87;100.00
57290;BME280;43523;53.022;-1.178;2022-11-20T02:52:40;100090.84;;;3.56;100.00
57290;BME280;43523;53.022;-1.178;2022-11-20T02:53:43;100089.94;;;3.65;100.00
57290;BME280;43523;53.022;-1.178;2022-11-20T02:54:45;100091.75;;;3.49;100.00
57290;BME280;43523;53.022;-1.178;2022-11-20T02:55:47;100086.78;;;3.45;100.00
57290;BME280;43523;53.022;-1.178;2022-11-20T02:56:50;100089.85;;;3.22;100.00
57290;BME280;43523;53.022;-1.178;2022-11-20T02:57:52;100088.94;;;3.31;100.00
57290;BME280;43523;53.022;-1.178;2022-11-20T02:58:55;100088.61;;;3.05;100.00
57290;BME280;43523;53.022;-1.178;2022-11-20T02:59:57;100081.21;;;3.23;100.00
57290;BME280;43523;53.022;-1.178;2022-11-20T03:01:00;100081.32;;;3.22;100.00
57290;BME280;43523;53.022;-1.178;2022-11-20T03:02:02;100077.22;;;2.95;100.00
57290;BME280;43523;53.022;-1.178;2022-11-20T03:03:04;100075.66;;;2.93;100.00
57290;BME280;43523;53.022;-1.178;2022-11-20T03:04:06;100075.94;;;3.09;100.00
57290;BME280;43523;53.022;-1.178;2022-11-20T03:05:09;100071.92;;;3.05;100.00
57290;BME280;43523;53.022;-1.178;2022-11-20T03:06:11;100069.67;;;2.82;100.00
57290;BME280;43523;53.022;-1.178;2022-11-20T03:07:13;100067.18;;;2.90;100.00
57290;BME280;43523;53.022;-1.178;2022-11-20T03:08:16;100063.91;;;3.05;100.00
57290;BME280;43523;53.022;-1.178;2022-11-20T03:09:18;100062.54;;;2.73;100.00
57290;BME280;43523;53.022;-1.178;2022-11-20T03:10:21;100060.76;;;2.98;100.00
57290;BME280;43523;53.022;-1.178;2022-11-20T03:11:23;100058.08;;;2.86;100.00
57290;BME280;43523;53.022;-1.178;2022-11-20T03:12:26;100055.31;;;2.60;100.00
57290;BME280;43523;53.022;-1.178;2022-11-20T03:13:28;100050.96;;;2.66;100.00
57290;BME280;43523;53.022;-1.178;2022-11-20T03:14:31;100050.75;;;2.55;100.00
57290;BME280;43523;53.022;-1.178;2022-11-20T03:15:33;100045.09;;;2.61;100.00
57290;BME280;43523;53.022;-1.178;2022-11-20T03:16:37;100044.79;;;2.78;100.00
57290;BME280;43523;53.022;-1.178;2022-11-20T03:17:39;100043.35;;;2.50;100.00
57290;BME280;43523;53.022;-1.178;2022-11-20T03:18:42;100038.67;;;2.51;100.00
57290;BME280;43523;53.022;-1.178;2022-11-20T03:19:45;100039.00;;;2.35;100.00
57290;BME280;43523;53.022;-1.178;2022-11-20T03:20:48;100034.43;;;2.40;100.00
57290;BME280;43523;53.022;-1.178;2022-11-20T03:21:50;100031.00;;;2.13;100.00
57290;BME280;43523;53.022;-1.178;2022-11-20T03:22:54;100030.95;;;2.31;100.00
57290;BME280;43523;53.022;-1.178;2022-11-20T03:23:56;100022.78;;;3.07;100.00
57290;BME280;43523;53.022;-1.178;2022-11-20T03:24:58;100019.61;;;2.40;100.00
57290;BME280;43523;53.022;-1.178;2022-11-20T03:26:10;100018.96;;;2.29;100.00
57290;BME280;43523;53.022;-1.178;2022-11-20T03:27:13;100015.15;;;1.82;100.00
57290;BME280;43523;53.022;-1.178;2022-11-20T03:28:15;100012.19;;;2.02;100.00
57290;BME280;43523;53.022;-1.178;2022-11-20T03:29:17;100007.98;;;2.40;100.00
57290;BME280;43523;53.022;-1.178;2022-11-20T03:30:19;100007.12;;;2.46;100.00
57290;BME280;43523;53.022;-1.178;2022-11-20T03:31:24;100004.06;;;2.10;100.00
57290;BME280;43523;53.022;-1.178;2022-11-20T03:32:26;100003.90;;;2.11;100.00
57290;BME280;43523;53.022;-1.178;2022-11-20T03:33:28;100000.79;;;2.11;100.00
57290;BME280;43523;53.022;-1.178;2022-11-20T03:34:31;99998.55;;;2.64;100.00
57290;BME280;43523;53.022;-1.178;2022-11-20T03:35:34;99998.53;;;2.61;100.00
57290;BME280;43523;53.022;-1.178;2022-11-20T03:36:38;99997.10;;;2.12;100.00
57290;BME280;43523;53.022;-1.178;2022-11-20T03:37:40;99993.16;;;2.30;100.00
57290;BME280;43523;53.022;-1.178;2022-11-20T03:38:43;99991.57;;;1.76;100.00
57290;BME280;43523;53.022;-1.178;2022-11-20T03:39:45;99992.78;;;2.10;100.00
57290;BME280;43523;53.022;-1.178;2022-11-20T03:40:48;99988.90;;;2.35;100.00
57290;BME280;43523;53.022;-1.178;2022-11-20T03:41:50;99988.24;;;2.01;100.00
57290;BME280;43523;53.022;-1.178;2022-11-20T03:42:52;99988.12;;;2.21;100.00
57290;BME280;43523;53.022;-1.178;2022-11-20T03:43:56;99984.84;;;2.15;100.00
57290;BME280;43523;53.022;-1.178;2022-11-20T03:44:59;99983.73;;;2.32;100.00
57290;BME280;43523;53.022;-1.178;2022-11-20T03:46:02;99982.21;;;2.29;100.00
57290;BME280;43523;53.022;-1.178;2022-11-20T03:47:05;99975.86;;;2.62;100.00
57290;BME280;43523;53.022;-1.178;2022-11-20T03:48:08;99968.54;;;2.69;100.00
57290;BME280;43523;53.022;-1.178;2022-11-20T03:49:10;99968.06;;;2.52;100.00
57290;BME280;43523;53.022;-1.178;2022-11-20T03:50:18;99965.24;;;2.55;100.00
57290;BME280;43523;53.022;-1.178;2022-11-20T03:51:23;99962.28;;;2.82;100.00
57290;BME280;43523;53.022;-1.178;2022-11-20T03:52:26;99957.56;;;2.63;100.00
57290;BME280;43523;53.022;-1.178;2022-11-20T03:53:28;99957.02;;;2.71;100.00
57290;BME280;43523;53.022;-1.178;2022-11-20T03:54:31;99956.46;;;2.67;100.00
57290;BME280;43523;53.022;-1.178;2022-11-20T03:55:33;99952.08;;;2.34;100.00
57290;BME280;43523;53.022;-1.178;2022-11-20T03:56:38;99946.66;;;2.80;100.00
57290;BME280;43523;53.022;-1.178;2022-11-20T03:57:41;99941.77;;;2.64;100.00
57290;BME280;43523;53.022;-1.178;2022-11-20T03:58:43;99942.75;;;2.69;100.00
57290;BME280;43523;53.022;-1.178;2022-11-20T03:59:46;99941.76;;;2.94;100.00
57290;BME280;43523;53.022;-1.178;2022-11-20T04:00:49;99938.84;;;2.59;100.00
57290;BME280;43523;53.022;-1.178;2022-11-20T04:01:51;99938.98;;;2.36;100.00
57290;BME280;43523;53.022;-1.178;2022-11-20T04:02:53;99936.96;;;2.77;100.00
57290;BME280;43523;53.022;-1.178;2022-11-20T04:03:59;99934.44;;;2.70;100.00
57290;BME280;43523;53.022;-1.178;2022-11-20T04:05:02;99933.27;;;2.52;100.00
57290;BME280;43523;53.022;-1.178;2022-11-20T04:06:07;99931.98;;;2.76;100.00
57290;BME280;43523;53.022;-1.178;2022-11-20T04:07:10;99929.76;;;2.17;100.00
57290;BME280;43523;53.022;-1.178;2022-11-20T04:08:13;99925.88;;;2.35;100.00
57290;BME280;43523;53.022;-1.178;2022-11-20T04:09:15;99928.11;;;2.79;100.00
57290;BME280;43523;53.022;-1.178;2022-11-20T04:10:17;99924.06;;;1.78;100.00
57290;BME280;43523;53.022;-1.178;2022-11-20T04:11:22;99926.33;;;2.02;100.00
57290;BME280;43523;53.022;-1.178;2022-11-20T04:12:24;99922.28;;;2.72;100.00
57290;BME280;43523;53.022;-1.178;2022-11-20T04:13:27;99922.30;;;2.78;100.00
57290;BME280;43523;53.022;-1.178;2022-11-20T04:14:29;99920.02;;;2.35;100.00
57290;BME280;43523;53.022;-1.178;2022-11-20T04:15:32;99913.42;;;2.59;100.00
57290;BME280;43523;53.022;-1.178;2022-11-20T04:16:36;99912.36;;;2.42;100.00
57290;BME280;43523;53.022;-1.178;2022-11-20T04:17:39;99909.08;;;2.87;100.00
57290;BME280;43523;53.022;-1.178;2022-11-20T04:18:41;99904.98;;;2.89;100.00
57290;BME280;43523;53.022;-1.178;2022-11-20T04:19:43;99905.80;;;2.39;100.00
57290;BME280;43523;53.022;-1.178;2022-11-20T04:20:46;99906.68;;;2.20;100.00
57290;BME280;43523;53.022;-1.178;2022-11-20T04:21:48;99905.99;;;1.97;100.00
57290;BME280;43523;53.022;-1.178;2022-11-20T04:22:53;99899.75;;;2.42;100.00
57290;BME280;43523;53.022;-1.178;2022-11-20T04:23:56;99894.24;;;3.05;100.00
57290;BME280;43523;53.022;-1.178;2022-11-20T04:24:59;99895.64;;;2.63;100.00
57290;BME280;43523;53.022;-1.178;2022-11-20T04:26:03;99892.89;;;2.08;100.00
57290;BME280;43523;53.022;-1.178;2022-11-20T04:27:06;99891.02;;;2.70;100.00
57290;BME280;43523;53.022;-1.178;2022-11-20T04:28:08;99885.17;;;2.45;100.00
57290;BME280;43523;53.022;-1.178;2022-11-20T04:29:11;99886.95;;;2.37;100.00
57290;BME280;43523;53.022;-1.178;2022-11-20T04:30:14;99878.71;;;3.06;100.00
57290;BME280;43523;53.022;-1.178;2022-11-20T04:31:18;99878.97;;;2.93;100.00
57290;BME280;43523;53.022;-1.178;2022-11-20T04:32:20;99877.50;;;2.81;100.00
57290;BME280;43523;53.022;-1.178;2022-11-20T04:33:22;99881.76;;;2.22;100.00
57290;BME280;43523;53.022;-1.178;2022-11-20T04:34:25;99879.90;;;2.21;100.00
57290;BME280;43523;53.022;-1.178;2022-11-20T04:35:27;99878.67;;;1.75;100.00
57290;BME280;43523;53.022;-1.178;2022-11-20T04:36:31;99877.43;;;2.04;100.00
57290;BME280;43523;53.022;-1.178;2022-11-20T04:37:34;99873.38;;;2.57;100.00
57290;BME280;43523;53.022;-1.178;2022-11-20T04:38:36;99869.68;;;3.14;100.00
57290;BME280;43523;53.022;-1.178;2022-11-20T04:39:39;99865.75;;;3.06;100.00
57290;BME280;43523;53.022;-1.178;2022-11-20T04:40:41;99866.04;;;2.75;100.00
57290;BME280;43523;53.022;-1.178;2022-11-20T04:41:44;99866.99;;;2.57;100.00
57290;BME280;43523;53.022;-1.178;2022-11-20T04:42:46;99872.40;;;2.36;100.00
57290;BME280;43523;53.022;-1.178;2022-11-20T04:43:50;99866.10;;;2.46;100.00
57290;BME280;43523;53.022;-1.178;2022-11-20T04:44:53;99864.67;;;2.35;100.00
57290;BME280;43523;53.022;-1.178;2022-11-20T04:45:56;99860.95;;;2.63;100.00
57290;BME280;43523;53.022;-1.178;2022-11-20T04:46:59;99862.46;;;2.49;100.00
57290;BME280;43523;53.022;-1.178;2022-11-20T04:48:02;99866.48;;;2.93;100.00
57290;BME280;43523;53.022;-1.178;2022-11-20T04:49:04;99865.33;;;2.44;100.00
57290;BME280;43523;53.022;-1.178;2022-11-20T04:50:07;99861.48;;;2.62;100.00
57290;BME280;43523;53.022;-1.178;2022-11-20T04:51:10;99862.92;;;2.72;100.00
57290;BME280;43523;53.022;-1.178;2022-11-20T04:52:13;99865.55;;;2.26;100.00
57290;BME280;43523;53.022;-1.178;2022-11-20T04:53:16;99863.27;;;2.61;100.00
57290;BME280;43523;53.022;-1.178;2022-11-20T04:54:18;99859.02;;;2.74;100.00
57290;BME280;43523;53.022;-1.178;2022-11-20T04:55:20;99861.40;;;3.00;100.00
57290;BME280;43523;53.022;-1.178;2022-11-20T04:56:22;99862.73;;;2.79;100.00
57290;BME280;43523;53.022;-1.178;2022-11-20T04:57:25;99855.58;;;2.86;100.00
57290;BME280;43523;53.022;-1.178;2022-11-20T04:58:28;99859.37;;;2.99;100.00
57290;BME280;43523;53.022;-1.178;2022-11-20T04:59:30;99858.23;;;2.70;100.00
57290;BME280;43523;53.022;-1.178;2022-11-20T05:00:33;99859.49;;;2.57;100.00
57290;BME280;43523;53.022;-1.178;2022-11-20T05:01:36;99853.00;;;2.78;100.00
57290;BME280;43523;53.022;-1.178;2022-11-20T05:02:38;99856.11;;;2.73;100.00
57290;BME280;43523;53.022;-1.178;2022-11-20T05:03:42;99852.30;;;2.90;100.00
57290;BME280;43523;53.022;-1.178;2022-11-20T05:04:45;99851.77;;;2.75;100.00
57290;BME280;43523;53.022;-1.178;2022-11-20T05:05:47;99855.17;;;2.38;100.00
57290;BME280;43523;53.022;-1.178;2022-11-20T05:06:50;99855.01;;;2.73;100.00
57290;BME280;43523;53.022;-1.178;2022-11-20T05:07:52;99855.94;;;2.68;100.00
57290;BME280;43523;53.022;-1.178;2022-11-20T05:08:55;99852.80;;;2.46;100.00
57290;BME280;43523;53.022;-1.178;2022-11-20T05:09:57;99858.31;;;2.56;100.00
57290;BME280;43523;53.022;-1.178;2022-11-20T05:11:01;99850.43;;;3.05;100.00
57290;BME280;43523;53.022;-1.178;2022-11-20T05:12:07;99853.14;;;2.73;100.00
57290;BME280;43523;53.022;-1.178;2022-11-20T05:13:09;99854.23;;;2.93;100.00
57290;BME280;43523;53.022;-1.178;2022-11-20T05:14:12;99852.07;;;2.59;100.00
57290;BME280;43523;53.022;-1.178;2022-11-20T05:15:14;99855.34;;;2.65;100.00
57290;BME280;43523;53.022;-1.178;2022-11-20T05:16:19;99857.14;;;2.86;100.00
57290;BME280;43523;53.022;-1.178;2022-11-20T05:17:21;99855.12;;;3.02;100.00
57290;BME280;43523;53.022;-1.178;2022-11-20T05:18:24;99850.23;;;3.00;100.00
57290;BME280;43523;53.022;-1.178;2022-11-20T05:19:26;99853.18;;;2.83;100.00
57290;BME280;43523;53.022;-1.178;2022-11-20T05:20:28;99853.35;;;2.94;100.00
57290;BME280;43523;53.022;-1.178;2022-11-20T05:21:31;99853.07;;;3.22;100.00
57290;BME280;43523;53.022;-1.178;2022-11-20T05:22:34;99852.58;;;2.35;100.00
57290;BME280;43523;53.022;-1.178;2022-11-20T05:23:37;99851.14;;;2.91;100.00
57290;BME280;43523;53.022;-1.178;2022-11-20T05:24:40;99849.64;;;2.89;100.00
57290;BME280;43523;53.022;-1.178;2022-11-20T05:25:42;99848.38;;;2.93;100.00
57290;BME280;43523;53.022;-1.178;2022-11-20T05:26:45;99847.19;;;3.13;100.00
57290;BME280;43523;53.022;-1.178;2022-11-20T05:27:47;99848.37;;;2.38;100.00